CheckWX is a tool to help pilots better visualize weather data.  It is not intended as a substitute for an official pre-flight weather briefing.

17:10:04 UTC

CWHN METAR
Jimmy Lake Airport
Jimmy Lake, Canada
Current

1 hour ago

CWHN 211600Z AUTO 23004KT 150V260 9SM CLR 20/12 A3022 RMK SLP240
Observed
Jul-21 @ 16:00 UTC
Wind
  • 230° at 4 KTS
Visibility
9 SM
Flight Rules
VFR
Cloud Levels
  • Clear skies
Temperature
20°C / 68°F
Dewpoint
12°C / 54°F
Humidity
60%
Altimeter
30.22" Hg
Pressure
1023.42 hPa
Previous

2 hours ago

CWHN 211500Z AUTO 23002KT 9SM CLR 18/12 A3021 RMK SLP238
Observed
Jul-21 @ 15:00 UTC
Wind
  • 230° at 2 KTS
Visibility
9 SM
Flight Rules
VFR
Cloud Levels
  • Clear skies
Temperature
18°C / 64°F
Dewpoint
12°C / 54°F
Humidity
68%
Altimeter
30.21" Hg
Pressure
1023.02 hPa
Previous

3 hours ago

CWHN 211400Z AUTO 00000KT 9SM CLR 15/13 A3020 RMK SLP236
Observed
Jul-21 @ 14:00 UTC
Visibility
9 SM
Flight Rules
VFR
Cloud Levels
  • Clear skies
Temperature
15°C / 59°F
Dewpoint
13°C / 55°F
Humidity
88%
Altimeter
30.2" Hg
Pressure
1022.72 hPa